createdAt,value
2019-01-28T00:00:34.026Z,6.43
2019-01-28T00:03:06.034Z,6.70
2019-01-28T00:05:35.903Z,6.27
2019-01-28T00:08:06.532Z,6.23
2019-01-28T00:10:38.477Z,6.40
2019-01-28T00:13:09.993Z,5.97
2019-01-28T00:15:40.951Z,6.90
2019-01-28T00:18:12.149Z,6.07
2019-01-28T00:20:43.021Z,6.10
2019-01-28T00:23:14.037Z,6.53
2019-01-28T00:25:45.384Z,5.00
2019-01-28T00:28:15.561Z,6.40
2019-01-28T00:30:46.718Z,7.00
2019-01-28T00:33:16.997Z,7.00
2019-01-28T00:35:48.157Z,5.97
2019-01-28T00:38:20.030Z,6.90
2019-01-28T00:40:49.593Z,6.80
2019-01-28T00:43:21.582Z,7.33
2019-01-28T00:45:52.877Z,8.10
2019-01-28T00:48:24.153Z,5.77
2019-01-28T00:50:55.829Z,5.93
2019-01-28T00:53:26.919Z,6.33
2019-01-28T00:55:57.756Z,5.60
2019-01-28T00:58:27.829Z,5.47
2019-01-28T01:00:59.519Z,6.40
2019-01-28T01:03:29.293Z,6.60
2019-01-28T01:06:00.037Z,7.30
2019-01-28T01:08:32.497Z,5.90
2019-01-28T01:11:02.186Z,6.53
2019-01-28T01:13:33.433Z,6.50
2019-01-28T01:16:04.538Z,5.13
2019-01-28T01:18:37.184Z,6.10
2019-01-28T01:21:08.202Z,5.13
2019-01-28T01:23:39.337Z,4.80
2019-01-28T01:26:09.211Z,5.13
2019-01-28T01:28:38.993Z,5.07
2019-01-28T01:31:11.407Z,5.40
2019-01-28T01:33:42.939Z,4.67
2019-01-28T01:36:15.756Z,5.17
2019-01-28T01:38:45.949Z,4.73
2019-01-28T01:41:16.221Z,4.60
2019-01-28T01:43:46.425Z,5.30
2019-01-28T01:46:17.286Z,5.60
2019-01-28T01:48:47.450Z,5.80
2019-01-28T01:51:17.341Z,5.10
2019-01-28T01:53:47.422Z,8.00
2019-01-28T01:56:17.618Z,6.83
2019-01-28T01:58:47.817Z,7.70
2019-01-28T02:01:20.452Z,5.60
2019-01-28T02:03:52.791Z,5.37
2019-01-28T02:06:22.688Z,5.17
2019-01-28T02:08:53.713Z,4.13
2019-01-28T02:11:24.845Z,3.80
2019-01-28T02:13:55.169Z,4.53
2019-01-28T02:16:26.614Z,3.90
2019-01-28T02:18:58.258Z,3.70
2019-01-28T02:21:28.464Z,4.03
2019-01-28T02:23:59.289Z,4.13
2019-01-28T02:26:30.311Z,3.73
2019-01-28T02:29:02.555Z,3.70
2019-01-28T02:31:32.798Z,3.30
2019-01-28T02:34:05.185Z,3.00
2019-01-28T02:36:35.394Z,3.10
2019-01-28T02:39:08.018Z,3.10
2019-01-28T02:41:38.509Z,3.07
2019-01-28T02:44:09.727Z,2.60
2019-01-28T02:46:39.632Z,3.03
2019-01-28T02:49:09.416Z,3.07
2019-01-28T02:51:39.209Z,2.70
2019-01-28T02:54:10.007Z,3.03
2019-01-28T02:56:41.506Z,2.87
2019-01-28T02:59:12.615Z,2.30
2019-01-28T03:01:42.803Z,2.60
2019-01-28T03:04:12.582Z,2.53
2019-01-28T03:06:43.621Z,2.60
2019-01-28T03:09:16.424Z,2.17
2019-01-28T03:11:46.564Z,2.00
2019-01-28T03:14:16.681Z,2.40
2019-01-28T03:16:47.317Z,2.40
2019-01-28T03:19:18.749Z,2.50
2019-01-28T03:21:49.883Z,2.03
2019-01-28T03:24:19.281Z,2.60
2019-01-28T03:26:50.217Z,2.67
2019-01-28T03:29:23.833Z,2.40
2019-01-28T03:31:55.492Z,2.97
2019-01-28T03:34:26.718Z,2.30
2019-01-28T03:36:57.956Z,3.10
2019-01-28T03:39:29.103Z,3.40
2019-01-28T03:42:03.078Z,3.27
2019-01-28T03:44:34.331Z,3.23
2019-01-28T03:47:04.741Z,3.03
2019-01-28T03:49:37.577Z,3.40
2019-01-28T03:52:09.603Z,3.47
2019-01-28T03:54:40.633Z,3.30
2019-01-28T03:57:12.230Z,3.23
2019-01-28T03:59:42.201Z,2.80
2019-01-28T04:02:12.791Z,6.37
2019-01-28T04:04:44.019Z,3.70
2019-01-28T04:07:15.154Z,3.50
2019-01-28T04:09:45.057Z,3.67
2019-01-28T04:12:14.830Z,3.80
2019-01-28T04:14:45.777Z,2.97
2019-01-28T04:17:17.225Z,3.70
2019-01-28T04:19:50.471Z,3.30
2019-01-28T04:22:20.330Z,3.03
2019-01-28T04:24:49.309Z,3.10
2019-01-28T04:27:20.389Z,3.37
2019-01-28T04:29:50.853Z,3.00
2019-01-28T04:32:22.566Z,3.20
2019-01-28T04:34:53.626Z,2.77
2019-01-28T04:37:25.673Z,3.40
2019-01-28T04:39:56.732Z,2.93
2019-01-28T04:42:28.259Z,3.37
2019-01-28T04:44:59.522Z,2.83
2019-01-28T04:47:30.336Z,2.50
2019-01-28T04:50:00.326Z,2.87
2019-01-28T04:52:30.094Z,3.20
2019-01-28T04:55:01.818Z,3.50
2019-01-28T04:57:32.269Z,3.10
2019-01-28T05:00:03.095Z,3.37
2019-01-28T05:02:34.762Z,3.40
2019-01-28T05:05:06.925Z,3.87
2019-01-28T05:07:37.341Z,3.67
2019-01-28T05:10:10.662Z,3.50
2019-01-28T05:12:41.079Z,3.53
2019-01-28T05:15:13.758Z,3.53
2019-01-28T05:17:46.068Z,4.00
2019-01-28T05:20:19.126Z,4.30
2019-01-28T05:22:50.440Z,4.37
2019-01-28T05:25:20.419Z,3.60
2019-01-28T05:27:51.172Z,4.27
2019-01-28T05:30:24.874Z,4.67
2019-01-28T05:32:55.146Z,4.10
2019-01-28T05:35:25.070Z,4.10
2019-01-28T05:37:55.050Z,3.50
2019-01-28T05:40:25.458Z,3.53
2019-01-28T05:42:55.347Z,4.27
2019-01-28T05:45:26.066Z,3.20
2019-01-28T05:47:57.559Z,4.10
2019-01-28T05:50:29.328Z,4.20
2019-01-28T05:53:00.494Z,3.93
2019-01-28T05:55:32.381Z,4.50
2019-01-28T05:58:03.136Z,3.80
2019-01-28T06:00:38.967Z,3.97
2019-01-28T06:03:09.241Z,3.53
2019-01-28T06:05:41.138Z,4.13
2019-01-28T06:08:11.190Z,4.37
2019-01-28T06:10:41.395Z,4.90
2019-01-28T06:13:12.434Z,3.70
2019-01-28T06:15:43.284Z,4.80
2019-01-28T06:18:14.305Z,4.17
2019-01-28T06:20:45.544Z,4.60
2019-01-28T06:23:15.429Z,5.00
2019-01-28T06:25:45.268Z,5.20
2019-01-28T06:28:15.049Z,4.70
2019-01-28T06:30:47.789Z,4.33
2019-01-28T06:33:19.835Z,6.00
2019-01-28T06:35:49.939Z,6.30
2019-01-28T06:38:21.389Z,6.30
2019-01-28T06:40:51.289Z,6.33
2019-01-28T06:43:21.890Z,6.47
2019-01-28T06:45:51.206Z,5.50
2019-01-28T06:48:22.044Z,5.50
2019-01-28T06:50:53.090Z,5.77
2019-01-28T06:53:24.777Z,5.80
2019-01-28T06:55:57.185Z,5.47
2019-01-28T06:58:27.237Z,5.70
2019-01-28T07:00:57.089Z,6.10
2019-01-28T07:03:29.302Z,5.87
2019-01-28T07:05:58.681Z,6.33
2019-01-28T07:08:28.757Z,6.17
2019-01-28T07:11:00.201Z,6.00
2019-01-28T07:13:30.108Z,4.90
2019-01-28T07:16:02.911Z,5.90
2019-01-28T07:18:34.250Z,5.83
2019-01-28T07:21:05.405Z,6.27
2019-01-28T07:23:37.301Z,5.70
2019-01-28T07:26:08.377Z,6.50
2019-01-28T07:28:38.209Z,6.93
2019-01-28T07:31:07.961Z,7.03
2019-01-28T07:33:38.969Z,6.33
2019-01-28T07:36:08.088Z,6.47
2019-01-28T07:38:38.230Z,5.50
2019-01-28T07:41:08.121Z,5.97
2019-01-28T07:43:38.228Z,6.50
2019-01-28T07:46:10.174Z,6.07
2019-01-28T07:48:41.298Z,6.10
2019-01-28T07:51:12.239Z,6.03
2019-01-28T07:53:45.825Z,6.80
2019-01-28T07:56:16.534Z,6.47
2019-01-28T07:58:46.590Z,7.03
2019-01-28T08:01:17.725Z,7.23
2019-01-28T08:03:51.606Z,7.07
2019-01-28T08:06:22.701Z,6.57
2019-01-28T08:08:54.934Z,6.17
2019-01-28T08:11:26.449Z,6.97
2019-01-28T08:13:56.649Z,7.97
2019-01-28T08:16:30.737Z,6.73
2019-01-28T08:19:01.467Z,7.00
2019-01-28T08:21:33.325Z,7.37
2019-01-28T08:24:03.485Z,6.23
2019-01-28T08:26:36.261Z,5.83
2019-01-28T08:29:05.934Z,5.30
2019-01-28T08:31:36.627Z,5.33
2019-01-28T08:34:07.264Z,5.00
2019-01-28T08:36:37.402Z,3.80
2019-01-28T08:39:09.165Z,5.53
2019-01-28T08:41:40.291Z,4.30
2019-01-28T08:44:10.433Z,3.60
2019-01-28T08:46:41.619Z,4.17
2019-01-28T08:49:12.868Z,3.67
2019-01-28T08:51:44.110Z,4.07
2019-01-28T08:54:15.594Z,3.90
2019-01-28T08:56:46.621Z,4.20
2019-01-28T08:59:17.562Z,3.80
2019-01-28T09:01:47.588Z,3.93
2019-01-28T09:04:19.697Z,3.77
2019-01-28T09:06:49.785Z,4.40
2019-01-28T09:09:21.285Z,3.60
2019-01-28T09:11:51.170Z,3.77
2019-01-28T09:14:20.917Z,3.80
2019-01-28T09:16:50.609Z,3.70
2019-01-28T09:19:24.261Z,3.23
2019-01-28T09:21:54.238Z,3.33
2019-01-28T09:24:26.409Z,3.67
2019-01-28T09:26:59.220Z,3.80
2019-01-28T09:29:31.189Z,3.50
2019-01-28T09:32:03.690Z,3.47
2019-01-28T09:34:36.113Z,3.87
2019-01-28T09:37:05.829Z,3.60
2019-01-28T09:39:36.567Z,3.50
2019-01-28T09:42:06.453Z,3.57
2019-01-28T09:44:36.630Z,3.77
2019-01-28T09:47:07.048Z,3.43
2019-01-28T09:49:38.278Z,3.00
2019-01-28T09:52:08.615Z,2.70
2019-01-28T09:54:38.866Z,3.40
2019-01-28T09:57:10.006Z,3.37
2019-01-28T09:59:41.173Z,3.10
2019-01-28T10:02:11.976Z,3.20
2019-01-28T10:04:44.712Z,2.87
2019-01-28T10:07:15.804Z,2.47
2019-01-28T10:09:47.913Z,2.40
2019-01-28T10:12:19.018Z,2.47
2019-01-28T10:14:49.748Z,2.80
2019-01-28T10:17:22.058Z,2.17
2019-01-28T10:19:53.249Z,2.13
2019-01-28T10:22:24.038Z,2.30
2019-01-28T10:24:55.013Z,2.77
2019-01-28T10:27:26.991Z,2.30
2019-01-28T10:29:57.217Z,3.00
2019-01-28T10:32:27.333Z,3.07
2019-01-28T10:35:00.453Z,2.80
2019-01-28T10:37:31.636Z,3.17
2019-01-28T10:40:07.069Z,3.20
2019-01-28T10:42:37.069Z,3.00
2019-01-28T10:45:09.200Z,3.13
2019-01-28T10:47:39.337Z,3.60
2019-01-28T10:50:13.625Z,3.33
2019-01-28T10:52:43.501Z,3.23
2019-01-28T10:55:17.909Z,3.40
2019-01-28T10:57:48.254Z,3.83
2019-01-28T11:00:23.080Z,3.67
2019-01-28T11:02:55.286Z,4.10
2019-01-28T11:05:25.669Z,4.03
2019-01-28T11:07:56.813Z,3.93
2019-01-28T11:10:28.327Z,4.03
2019-01-28T11:13:00.939Z,3.20
2019-01-28T11:15:32.373Z,3.70
2019-01-28T11:18:09.413Z,3.30
2019-01-28T11:20:40.547Z,3.33
2019-01-28T11:23:10.733Z,3.50
2019-01-28T11:25:40.164Z,3.23
2019-01-28T11:28:10.391Z,3.67
2019-01-28T11:30:49.498Z,2.90
2019-01-28T11:33:20.627Z,3.43
2019-01-28T11:35:51.457Z,3.03
2019-01-28T11:38:21.378Z,3.03
2019-01-28T11:40:54.162Z,2.60
2019-01-28T11:43:25.326Z,2.90
2019-01-28T11:45:59.327Z,2.87
2019-01-28T11:48:32.675Z,3.30
2019-01-28T11:51:04.859Z,2.60
2019-01-28T11:53:36.066Z,2.47
2019-01-28T11:56:09.192Z,3.07
2019-01-28T11:58:39.366Z,2.93
2019-01-28T12:01:10.931Z,2.63
2019-01-28T12:03:42.578Z,3.00
2019-01-28T12:06:13.991Z,2.60
2019-01-28T12:08:45.507Z,2.10
2019-01-28T12:11:16.316Z,2.27
2019-01-28T12:13:46.109Z,2.50
2019-01-28T12:16:16.077Z,2.10
2019-01-28T12:21:37.147Z,2.47
2019-01-28T12:24:07.757Z,2.10
2019-01-28T12:26:38.810Z,2.20
2019-01-28T12:29:09.517Z,2.50
2019-01-28T12:31:39.303Z,2.43
2019-01-28T12:34:09.897Z,2.43
2019-01-28T12:36:39.613Z,2.30
2019-01-28T12:39:09.834Z,2.40
2019-01-28T12:41:39.555Z,2.60
2019-01-28T12:44:11.223Z,2.00
2019-01-28T12:46:42.069Z,2.20
2019-01-28T12:49:21.741Z,2.27
2019-01-28T12:51:47.953Z,2.20
2019-01-28T12:54:19.677Z,2.40
2019-01-28T12:56:51.234Z,2.17
2019-01-28T12:59:22.019Z,2.00
2019-01-28T13:01:52.649Z,1.77
2019-01-28T13:04:26.953Z,2.50
2019-01-28T13:06:57.539Z,2.27
2019-01-28T13:09:28.628Z,2.20
2019-01-28T13:11:58.753Z,2.30
2019-01-28T13:14:29.853Z,2.33
2019-01-28T13:17:00.049Z,2.50
2019-01-28T13:19:30.536Z,2.60
2019-01-28T13:22:01.325Z,1.90
2019-01-28T13:24:33.478Z,2.10
2019-01-28T13:27:03.373Z,2.63
2019-01-28T13:29:33.381Z,2.60
2019-01-28T13:32:04.286Z,2.57
2019-01-28T13:34:33.981Z,2.40
2019-01-28T13:37:05.750Z,2.50
2019-01-28T13:39:36.365Z,2.60
2019-01-28T13:42:07.866Z,2.23
2019-01-28T13:44:39.330Z,2.63
2019-01-28T13:47:09.570Z,2.70
2019-01-28T13:49:40.143Z,2.57
2019-01-28T13:52:10.350Z,2.87
2019-01-28T13:54:41.292Z,2.93
2019-01-28T13:57:11.562Z,3.30
2019-01-28T13:59:41.463Z,3.17
2019-01-28T14:02:13.161Z,3.50
2019-01-28T14:04:43.789Z,3.37
2019-01-28T14:07:14.745Z,3.47
2019-01-28T14:09:46.454Z,3.20
2019-01-28T14:12:16.210Z,3.80
2019-01-28T14:14:46.933Z,3.17
2019-01-28T14:17:18.734Z,3.53
2019-01-28T14:19:48.861Z,4.77
2019-01-28T14:22:20.009Z,4.70
2019-01-28T14:24:50.845Z,4.50
2019-01-28T14:27:20.114Z,3.90
2019-01-28T14:29:50.845Z,4.60
2019-01-28T14:32:22.492Z,4.67
2019-01-28T14:34:52.566Z,5.40
2019-01-28T14:37:23.723Z,4.60
2019-01-28T14:39:55.764Z,4.67
2019-01-28T14:42:26.898Z,4.53
2019-01-28T14:44:57.689Z,4.00
2019-01-28T14:47:29.753Z,3.70
2019-01-28T14:50:00.546Z,4.13
2019-01-28T14:52:31.566Z,4.77
2019-01-28T14:55:01.462Z,4.57
2019-01-28T14:57:31.238Z,3.47
2019-01-28T15:00:03.662Z,3.97
2019-01-28T15:02:34.846Z,3.63
2019-01-28T15:05:07.618Z,3.83
2019-01-28T15:07:38.758Z,3.70
2019-01-28T15:10:12.514Z,3.57
2019-01-28T15:12:44.649Z,3.30
2019-01-28T15:15:18.837Z,3.33
2019-01-28T15:17:48.697Z,3.07
2019-01-28T15:20:18.859Z,4.33
2019-01-28T15:22:49.693Z,3.90
2019-01-28T15:25:19.377Z,3.57
2019-01-28T15:27:50.681Z,3.70
2019-01-28T15:30:27.787Z,3.10
2019-01-28T15:32:58.678Z,3.10
2019-01-28T15:35:29.559Z,3.07
2019-01-28T15:37:59.652Z,3.83
2019-01-28T15:40:32.578Z,3.80
2019-01-28T15:43:04.330Z,3.87
2019-01-28T15:45:36.230Z,3.40
2019-01-28T15:48:07.374Z,3.50
2019-01-28T15:50:37.125Z,2.80
2019-01-28T15:53:09.422Z,3.60
2019-01-28T15:55:41.084Z,4.03
2019-01-28T15:58:12.423Z,3.00
2019-01-28T16:00:43.689Z,3.47
2019-01-28T16:03:13.933Z,3.43
2019-01-28T16:05:45.169Z,3.70
2019-01-28T16:08:16.218Z,4.83
2019-01-28T16:10:47.049Z,4.00
2019-01-28T16:13:19.961Z,4.20
2019-01-28T16:15:50.786Z,4.03
2019-01-28T16:18:23.722Z,3.73
2019-01-28T16:20:55.681Z,3.10
2019-01-28T16:23:26.889Z,3.60
2019-01-28T16:25:59.174Z,3.47
2019-01-28T16:28:32.122Z,3.80
2019-01-28T16:31:02.862Z,3.27
2019-01-28T16:33:32.612Z,3.10
2019-01-28T16:36:02.399Z,3.13
2019-01-28T16:38:34.036Z,3.80
2019-01-28T16:41:05.282Z,3.37
2019-01-28T16:43:35.479Z,3.40
2019-01-28T16:46:05.788Z,3.50
2019-01-28T16:48:37.113Z,3.70
2019-01-28T16:51:07.949Z,3.30
2019-01-28T16:53:38.939Z,3.30
2019-01-28T16:56:09.594Z,2.57
2019-01-28T16:58:40.617Z,3.37
2019-01-28T17:01:11.383Z,3.30
2019-01-28T17:03:42.469Z,3.10
2019-01-28T17:06:14.071Z,2.80
2019-01-28T17:08:45.194Z,2.93
2019-01-28T17:11:16.261Z,2.90
2019-01-28T17:13:47.138Z,2.80
2019-01-28T17:16:18.150Z,3.10
2019-01-28T17:18:48.990Z,2.80
2019-01-28T17:21:19.617Z,3.40
2019-01-28T17:23:50.325Z,3.10
2019-01-28T17:26:20.974Z,2.90
2019-01-28T17:28:52.066Z,3.17
2019-01-28T17:31:22.902Z,3.17
2019-01-28T17:33:53.928Z,2.90
2019-01-28T17:36:24.724Z,2.90
2019-01-28T17:38:56.570Z,3.57
2019-01-28T17:41:26.822Z,3.70
2019-01-28T17:43:58.087Z,3.47
2019-01-28T17:46:28.926Z,4.00
2019-01-28T17:48:58.569Z,4.33
2019-01-28T17:51:30.099Z,3.83
2019-01-28T17:54:01.251Z,3.67
2019-01-28T17:56:31.025Z,3.57
2019-01-28T17:59:01.678Z,3.60
2019-01-28T18:01:33.253Z,3.60
2019-01-28T18:04:03.605Z,4.00
2019-01-28T18:06:33.505Z,3.97
2019-01-28T18:09:04.548Z,3.83
2019-01-28T18:11:34.626Z,3.60
2019-01-28T18:14:05.877Z,3.20
2019-01-28T18:16:37.014Z,3.20
2019-01-28T18:19:08.110Z,3.87
2019-01-28T18:21:39.349Z,3.30
2019-01-28T18:24:11.922Z,3.07
2019-01-28T18:26:43.822Z,3.30
2019-01-28T18:29:14.955Z,2.83
2019-01-28T18:31:46.965Z,2.50
2019-01-28T18:34:21.166Z,2.73
2019-01-28T18:36:51.301Z,2.30
2019-01-28T18:39:24.250Z,2.60
2019-01-28T18:41:55.378Z,2.70
2019-01-28T18:44:26.927Z,2.80
2019-01-28T18:46:57.089Z,2.77
2019-01-28T18:49:27.339Z,3.00
2019-01-28T18:54:47.629Z,2.87
2019-01-28T18:57:18.397Z,3.10
2019-01-28T18:59:50.671Z,3.27
2019-01-28T19:02:22.605Z,3.33
2019-01-28T19:04:52.293Z,3.53
2019-01-28T19:07:33.495Z,3.00
2019-01-28T19:10:05.601Z,3.97
2019-01-28T19:12:38.574Z,3.97
2019-01-28T19:15:10.224Z,3.20
2019-01-28T19:17:44.587Z,4.13
2019-01-28T19:20:16.610Z,3.80
2019-01-28T19:22:48.782Z,3.77
2019-01-28T19:25:20.329Z,3.87
2019-01-28T19:27:53.335Z,4.30
2019-01-28T19:30:25.410Z,3.77
2019-01-28T19:32:57.929Z,4.00
2019-01-28T19:35:29.265Z,4.33
2019-01-28T19:38:01.534Z,3.83
2019-01-28T19:40:32.380Z,4.00
2019-01-28T19:43:04.668Z,3.90
2019-01-28T19:45:35.481Z,3.70
2019-01-28T19:48:07.338Z,4.60
2019-01-28T19:50:41.001Z,4.40
2019-01-28T19:53:13.330Z,4.10
2019-01-28T19:55:43.244Z,3.70
2019-01-28T19:58:12.510Z,3.00
2019-01-28T20:00:43.114Z,3.83
2019-01-28T20:03:13.983Z,3.77
2019-01-28T20:05:43.656Z,3.30
2019-01-28T20:08:15.130Z,3.57
2019-01-28T20:10:45.586Z,3.20
2019-01-28T20:13:15.649Z,3.50
2019-01-28T20:15:46.816Z,3.70
2019-01-28T20:18:16.985Z,4.17
2019-01-28T20:20:50.477Z,3.20
2019-01-28T20:23:20.534Z,3.63
2019-01-28T20:25:51.392Z,4.33
2019-01-28T20:28:22.309Z,5.27
2019-01-28T20:30:52.186Z,5.30
2019-01-28T20:33:24.760Z,5.10
2019-01-28T20:35:56.265Z,3.90
2019-01-28T20:38:26.709Z,4.40
2019-01-28T20:40:57.765Z,3.80
2019-01-28T20:43:28.599Z,4.93
2019-01-28T20:46:01.895Z,5.23
2019-01-28T20:48:33.554Z,4.63
2019-01-28T20:51:03.780Z,4.73
2019-01-28T20:53:34.923Z,4.00
2019-01-28T20:56:05.393Z,3.77
2019-01-28T20:58:35.602Z,4.07
2019-01-28T21:01:07.285Z,4.20
2019-01-28T21:03:37.990Z,5.50
2019-01-28T21:06:09.416Z,3.73
2019-01-28T21:08:41.103Z,4.77
2019-01-28T21:11:15.183Z,4.50
2019-01-28T21:13:46.282Z,4.60
2019-01-28T21:16:17.008Z,4.40
2019-01-28T21:18:48.127Z,3.63
2019-01-28T21:21:20.342Z,4.93
2019-01-28T21:23:52.293Z,4.73
2019-01-28T21:26:24.266Z,4.30
2019-01-28T21:28:56.997Z,4.47
2019-01-28T21:31:28.718Z,4.67
2019-01-28T21:33:58.932Z,4.57
2019-01-28T21:36:31.625Z,4.50
2019-01-28T21:39:01.417Z,4.53
2019-01-28T21:41:33.938Z,5.20
2019-01-28T21:44:04.923Z,4.20
2019-01-28T21:46:36.058Z,4.67
2019-01-28T21:49:05.992Z,4.80
2019-01-28T21:51:35.685Z,4.50
2019-01-28T21:54:07.074Z,4.30
2019-01-28T21:56:37.238Z,4.37
2019-01-28T21:59:07.195Z,4.80
2019-01-28T22:01:37.345Z,4.67
2019-01-28T22:04:08.597Z,4.27
2019-01-28T22:06:39.683Z,4.23
2019-01-28T22:09:09.665Z,4.53
2019-01-28T22:11:39.777Z,4.00
2019-01-28T22:14:10.014Z,3.80
2019-01-28T22:16:41.244Z,3.90
2019-01-28T22:19:10.665Z,4.37
2019-01-28T22:21:40.402Z,4.30
2019-01-28T22:24:12.823Z,3.70
2019-01-28T22:26:44.441Z,3.80
2019-01-28T22:29:17.270Z,3.27
2019-01-28T22:31:47.466Z,4.47
2019-01-28T22:34:18.273Z,4.60
2019-01-28T22:36:48.918Z,4.50
2019-01-28T22:39:22.278Z,3.90
2019-01-28T22:41:53.044Z,4.00
2019-01-28T22:44:24.094Z,4.13
2019-01-28T22:46:56.278Z,4.20
2019-01-28T22:49:26.554Z,3.50
2019-01-28T22:51:57.645Z,4.03
2019-01-28T22:54:32.619Z,3.90
2019-01-28T22:57:03.851Z,4.60
2019-01-28T22:59:35.899Z,4.63
2019-01-28T23:02:06.622Z,4.33
2019-01-28T23:04:37.761Z,3.57
2019-01-28T23:07:11.186Z,4.30
2019-01-28T23:09:41.493Z,4.90
2019-01-28T23:12:12.761Z,4.27
2019-01-28T23:14:45.181Z,4.00
2019-01-28T23:17:16.353Z,3.87
2019-01-28T23:19:46.261Z,4.23
2019-01-28T23:22:16.460Z,4.00
2019-01-28T23:24:46.453Z,3.70
2019-01-28T23:27:16.217Z,4.80
2019-01-28T23:29:46.865Z,4.83
2019-01-28T23:32:17.457Z,5.07
2019-01-28T23:34:49.277Z,5.07
2019-01-28T23:37:20.065Z,4.40
2019-01-28T23:39:51.403Z,5.37
2019-01-28T23:42:22.534Z,4.90
2019-01-28T23:44:54.286Z,5.00
2019-01-28T23:47:27.000Z,4.23
2019-01-28T23:49:59.076Z,3.80
2019-01-28T23:52:31.947Z,3.80
2019-01-28T23:55:03.136Z,3.80
2019-01-28T23:57:33.966Z,4.57
